Time;durP1;ratioP1;P1;durP2;ratioP2;P2;SDS_P1;SDS_P2;PMS_P1;PMS_P2;Temp;Humidity;BMP_temperature;BMP_pressure;BME280_temperature;BME280_humidity;BME280_pressure;Samples;Min_cycle;Max_cycle;Signal;HPM_P1;HPM_P2
2023/03/11 00:00:22;;;;;;;0.70;0.67;;;6.70;99.90;;;;;;7392852;19;20143;-78
2023/03/11 00:02:50;;;;;;;0.87;0.80;;;6.90;99.90;;;;;;7391145;19;20157;-77
2023/03/11 00:05:20;;;;;;;0.50;0.50;;;6.90;99.90;;;;;;7390750;19;20158;-77
2023/03/11 00:07:45;;;;;;;0.97;0.50;;;6.80;99.90;;;;;;7392166;19;20250;-76
2023/03/11 00:10:15;;;;;;;0.70;0.60;;;6.60;99.90;;;;;;7392620;19;20606;-77
2023/03/11 00:12:40;;;;;;;0.93;0.60;;;6.70;99.90;;;;;;7390016;19;20150;-78
2023/03/11 00:15:07;;;;;;;0.60;0.50;;;6.80;99.90;;;;;;7390914;19;20507;-75
2023/03/11 00:17:32;;;;;;;0.83;0.73;;;6.70;99.90;;;;;;7391495;19;20218;-77
2023/03/11 00:19:58;;;;;;;1.10;0.90;;;6.60;99.90;;;;;;7393302;19;20143;-75
2023/03/11 00:22:24;;;;;;;1.10;0.60;;;6.40;99.90;;;;;;7391070;19;20154;-76
2023/03/11 00:24:49;;;;;;;1.03;0.70;;;6.60;99.90;;;;;;7390383;19;20590;-76
2023/03/11 00:27:15;;;;;;;1.67;0.70;;;6.60;99.90;;;;;;7390517;19;20143;-77
2023/03/11 00:29:41;;;;;;;0.80;0.70;;;6.70;99.90;;;;;;7391010;19;20142;-76
2023/03/11 00:32:07;;;;;;;2.43;0.70;;;6.80;99.90;;;;;;7390326;19;20161;-76
2023/03/11 00:34:34;;;;;;;0.60;0.60;;;6.90;99.90;;;;;;7390225;19;20166;-77
2023/03/11 00:36:59;;;;;;;1.43;0.50;;;6.90;99.90;;;;;;7393192;19;20150;-77
2023/03/11 00:39:25;;;;;;;0.60;0.50;;;6.90;99.90;;;;;;7391552;19;20177;-77
2023/03/11 00:41:55;;;;;;;0.60;0.53;;;6.90;99.90;;;;;;7392273;19;20591;-77
2023/03/11 00:44:21;;;;;;;1.27;0.60;;;6.60;99.90;;;;;;7390846;19;20135;-78
2023/03/11 00:46:48;;;;;;;1.33;0.80;;;6.30;99.90;;;;;;7387970;19;20490;-77
2023/03/11 00:49:14;;;;;;;0.93;0.60;;;6.50;99.90;;;;;;7392862;19;20144;-78
2023/03/11 00:51:40;;;;;;;1.17;0.90;;;6.20;99.90;;;;;;7390162;19;20516;-77
2023/03/11 00:54:05;;;;;;;1.50;0.43;;;6.40;99.90;;;;;;7391092;19;20214;-76
2023/03/11 00:56:31;;;;;;;1.23;0.77;;;6.60;99.90;;;;;;7390759;19;20513;-76
2023/03/11 00:58:57;;;;;;;0.90;0.60;;;6.30;99.90;;;;;;7391906;19;20138;-78
2023/03/11 01:01:23;;;;;;;1.70;0.80;;;6.50;99.90;;;;;;7388762;19;20638;-76
2023/03/11 01:03:50;;;;;;;1.73;0.83;;;6.60;99.90;;;;;;7392217;19;20483;-77
2023/03/11 01:06:17;;;;;;;0.73;0.70;;;6.50;99.90;;;;;;7387609;19;20155;-77
2023/03/11 01:08:43;;;;;;;2.10;0.80;;;6.60;99.90;;;;;;7391869;19;20151;-77
2023/03/11 01:11:09;;;;;;;1.57;0.73;;;6.40;99.90;;;;;;7392939;19;20141;-77
2023/03/11 01:13:35;;;;;;;3.50;0.87;;;6.50;99.90;;;;;;7390150;19;20214;-76
2023/03/11 01:16:02;;;;;;;1.87;0.80;;;6.70;99.90;;;;;;7389669;19;20210;-77
2023/03/11 01:18:28;;;;;;;0.77;0.77;;;6.60;99.90;;;;;;7392122;19;20830;-76
2023/03/11 01:20:54;;;;;;;2.73;0.97;;;6.60;99.90;;;;;;7389147;19;20202;-77
2023/03/11 01:23:20;;;;;;;1.73;0.70;;;6.60;99.90;;;;;;7388349;19;20190;-77
2023/03/11 01:25:46;;;;;;;1.27;0.90;;;6.60;99.90;;;;;;7388050;19;20555;-76
2023/03/11 01:28:12;;;;;;;1.50;0.80;;;6.50;99.90;;;;;;7390815;19;20148;-76
2023/03/11 01:30:39;;;;;;;4.27;1.03;;;6.20;99.90;;;;;;7389834;19;20127;-75
2023/03/11 01:33:07;;;;;;;1.40;0.80;;;6.40;99.90;;;;;;7388595;19;20194;-76
2023/03/11 01:35:34;;;;;;;1.30;1.00;;;6.50;99.90;;;;;;7390778;19;20145;-78
2023/03/11 01:38:00;;;;;;;1.50;0.97;;;6.50;99.90;;;;;;7383530;19;20142;-77
2023/03/11 01:40:29;;;;;;;2.00;0.70;;;6.60;99.90;;;;;;7389920;19;20170;-76
2023/03/11 01:42:55;;;;;;;4.10;1.10;;;6.60;99.90;;;;;;7388330;19;20134;-77
2023/03/11 01:46:01;;;;;;;0.87;0.70;;;6.60;99.90;;;;;;7387362;19;20146;-77
2023/03/11 01:48:28;;;;;;;1.60;0.70;;;6.40;99.90;;;;;;7388541;19;20150;-77
2023/03/11 01:50:54;;;;;;;4.33;0.83;;;6.00;99.90;;;;;;7385726;19;20262;-75
2023/03/11 01:53:22;;;;;;;0.60;0.60;;;5.70;99.90;;;;;;7386639;19;20279;-77
2023/03/11 01:55:49;;;;;;;1.27;0.70;;;6.00;99.90;;;;;;7386171;19;20130;-77
2023/03/11 01:58:27;;;;;;;0.80;0.80;;;6.00;99.90;;;;;;7386852;19;20521;-77
2023/03/11 02:00:54;;;;;;;1.47;0.83;;;6.20;99.90;;;;;;7388939;19;20139;-75
2023/03/11 02:03:40;;;;;;;1.00;0.70;;;6.20;99.90;;;;;;7386744;19;20159;-75
2023/03/11 02:06:10;;;;;;;1.27;0.80;;;6.10;99.90;;;;;;7388766;19;20138;-76
2023/03/11 02:08:35;;;;;;;1.50;0.90;;;6.20;99.90;;;;;;7389239;19;20472;-76
2023/03/11 02:11:04;;;;;;;2.53;0.90;;;6.10;99.90;;;;;;7388043;19;20178;-76
2023/03/11 02:13:34;;;;;;;1.93;0.80;;;6.20;99.90;;;;;;7386817;19;20225;-76
2023/03/11 02:16:01;;;;;;;1.20;0.80;;;6.10;99.90;;;;;;7388429;19;20919;-76
2023/03/11 02:18:27;;;;;;;1.70;0.80;;;6.30;99.90;;;;;;7387512;19;20479;-77
2023/03/11 02:21:20;;;;;;;1.97;0.80;;;6.10;99.90;;;;;;7386005;19;20145;-77
2023/03/11 02:23:55;;;;;;;3.60;0.97;;;6.20;99.90;;;;;;7387158;19;20567;-75
2023/03/11 02:26:34;;;;;;;1.17;0.90;;;6.20;99.90;;;;;;7395419;19;20134;-76
2023/03/11 02:29:05;;;;;;;1.07;0.80;;;6.20;99.90;;;;;;7395255;19;20154;-76
2023/03/11 02:31:31;;;;;;;1.70;0.80;;;6.30;99.90;;;;;;7397578;19;20143;-75
2023/03/11 02:34:01;;;;;;;1.83;0.97;;;5.90;99.90;;;;;;7392942;19;20162;-75
2023/03/11 02:36:33;;;;;;;1.93;0.90;;;6.00;99.90;;;;;;7394776;19;20154;-75
2023/03/11 02:38:59;;;;;;;1.10;0.77;;;6.20;99.90;;;;;;7392471;19;20134;-75
2023/03/11 02:41:26;;;;;;;0.97;0.60;;;6.10;99.90;;;;;;7394864;19;20145;-76
2023/03/11 02:43:53;;;;;;;0.50;0.50;;;5.50;99.90;;;;;;7393975;19;20138;-76
2023/03/11 02:46:19;;;;;;;1.60;0.90;;;5.10;99.90;;;;;;7393669;19;20163;-75
2023/03/11 02:48:47;;;;;;;2.87;0.70;;;5.10;99.90;;;;;;7396327;19;20142;-74
2023/03/11 02:51:13;;;;;;;1.43;0.80;;;5.50;99.90;;;;;;7393589;19;20463;-75
2023/03/11 02:53:51;;;;;;;1.33;0.70;;;5.70;99.90;;;;;;7395046;19;20142;-75
2023/03/11 02:56:17;;;;;;;3.00;0.70;;;5.80;99.90;;;;;;7394534;19;20138;-76
2023/03/11 02:58:43;;;;;;;0.70;0.53;;;5.80;99.90;;;;;;7393775;19;20145;-75
2023/03/11 03:01:09;;;;;;;1.07;0.80;;;5.80;99.90;;;;;;7393712;19;20591;-74
2023/03/11 03:03:35;;;;;;;2.87;0.70;;;5.90;99.90;;;;;;7392022;19;20157;-76
2023/03/11 03:06:01;;;;;;;1.83;0.80;;;5.90;99.90;;;;;;7394255;19;20154;-75
2023/03/11 03:08:28;;;;;;;1.40;0.80;;;5.80;99.90;;;;;;7394307;19;20150;-75
2023/03/11 03:10:54;;;;;;;1.60;0.63;;;5.70;99.90;;;;;;7393062;19;20142;-75
2023/03/11 03:13:20;;;;;;;1.53;0.73;;;5.70;99.90;;;;;;7393891;19;20146;-75
2023/03/11 03:15:45;;;;;;;2.90;0.73;;;5.60;99.90;;;;;;7394952;19;20254;-77
2023/03/11 03:18:11;;;;;;;2.77;0.97;;;5.70;99.90;;;;;;7393494;19;20148;-75
2023/03/11 03:20:37;;;;;;;1.97;0.80;;;5.80;99.90;;;;;;7394955;19;20214;-75
2023/03/11 03:23:02;;;;;;;0.83;0.63;;;5.60;99.90;;;;;;7390496;19;20155;-75
2023/03/11 03:25:28;;;;;;;2.93;1.07;;;5.50;99.90;;;;;;7391120;19;20142;-75
2023/03/11 03:27:54;;;;;;;1.17;0.67;;;5.50;99.90;;;;;;7393565;19;20131;-75
2023/03/11 03:30:20;;;;;;;2.73;0.90;;;5.40;99.90;;;;;;7394538;19;20145;-75
2023/03/11 03:32:46;;;;;;;1.07;0.70;;;5.40;99.90;;;;;;7392945;19;20134;-74
2023/03/11 03:35:11;;;;;;;2.37;0.53;;;5.50;99.90;;;;;;7392525;19;20607;-75
2023/03/11 03:37:37;;;;;;;1.17;0.80;;;5.60;99.90;;;;;;7392502;19;20151;-75
2023/03/11 03:40:06;;;;;;;1.13;0.70;;;5.60;99.90;;;;;;7391335;19;20553;-74
2023/03/11 03:42:36;;;;;;;2.80;0.70;;;5.60;99.90;;;;;;7392102;19;20135;-75
2023/03/11 03:45:03;;;;;;;1.73;0.67;;;5.50;99.90;;;;;;7388873;19;20139;-76
2023/03/11 03:47:28;;;;;;;2.83;0.60;;;5.60;99.90;;;;;;7384046;19;20474;-76
2023/03/11 03:49:54;;;;;;;1.33;0.80;;;5.50;99.90;;;;;;7390549;19;20170;-75
2023/03/11 03:52:20;;;;;;;2.87;1.17;;;5.40;99.90;;;;;;7392317;19;20139;-75
2023/03/11 03:54:46;;;;;;;0.63;0.57;;;5.50;99.90;;;;;;7384292;19;20157;-75
2023/03/11 03:57:11;;;;;;;4.47;0.57;;;5.50;99.90;;;;;;7392516;19;20137;-75
2023/03/11 03:59:38;;;;;;;1.33;0.50;;;5.50;99.90;;;;;;7391137;19;20151;-76
2023/03/11 04:02:04;;;;;;;1.03;0.60;;;5.50;99.90;;;;;;7391328;19;20150;-75
2023/03/11 04:04:30;;;;;;;3.13;1.20;;;5.60;99.90;;;;;;7389463;19;20177;-76
2023/03/11 04:06:56;;;;;;;2.07;0.70;;;5.60;99.90;;;;;;7388929;19;20147;-75
2023/03/11 04:09:22;;;;;;;1.77;0.70;;;5.50;99.90;;;;;;7392098;19;20138;-74
2023/03/11 04:11:47;;;;;;;3.50;0.80;;;5.60;99.90;;;;;;7392217;19;20134;-77
2023/03/11 04:14:13;;;;;;;2.03;0.80;;;5.30;99.90;;;;;;7391965;19;20134;-74
2023/03/11 04:16:39;;;;;;;0.77;0.53;;;5.30;99.90;;;;;;7391702;19;20149;-74
2023/03/11 04:19:05;;;;;;;1.83;0.70;;;5.30;99.90;;;;;;7393965;19;20127;-73
2023/03/11 04:21:31;;;;;;;1.47;0.60;;;5.40;99.90;;;;;;7391816;19;20138;-76
2023/03/11 04:23:57;;;;;;;2.03;0.80;;;5.40;99.90;;;;;;7393242;19;20151;-75
2023/03/11 04:26:24;;;;;;;2.33;0.70;;;5.40;99.90;;;;;;7391007;19;20259;-75
2023/03/11 04:28:50;;;;;;;0.60;0.60;;;5.40;99.90;;;;;;7393097;19;20472;-76
2023/03/11 04:31:16;;;;;;;4.83;0.60;;;5.50;99.90;;;;;;7391745;19;20146;-75
2023/03/11 04:33:42;;;;;;;1.53;0.70;;;5.40;99.90;;;;;;7392321;19;20559;-76
2023/03/11 04:36:09;;;;;;;1.93;0.60;;;5.50;99.90;;;;;;7390768;19;20163;-76
2023/03/11 04:38:34;;;;;;;1.10;0.70;;;5.50;99.90;;;;;;7390305;19;20134;-75
2023/03/11 04:41:05;;;;;;;2.27;0.73;;;5.40;99.90;;;;;;7389440;19;20298;-75
2023/03/11 04:43:35;;;;;;;1.73;0.80;;;5.40;99.90;;;;;;7392197;19;20153;-75
2023/03/11 04:46:01;;;;;;;2.37;1.07;;;5.30;99.90;;;;;;7391326;19;20460;-76
2023/03/11 04:48:26;;;;;;;2.93;0.80;;;5.40;99.90;;;;;;7390083;19;20130;-74
2023/03/11 04:50:52;;;;;;;1.63;0.67;;;5.30;99.90;;;;;;7389044;19;20639;-75
2023/03/11 04:53:18;;;;;;;1.93;0.90;;;5.30;99.90;;;;;;7389257;19;20150;-75
2023/03/11 04:55:46;;;;;;;1.40;0.60;;;5.30;99.90;;;;;;7387254;19;22283;-75
2023/03/11 04:58:11;;;;;;;4.23;1.00;;;5.30;99.90;;;;;;7390832;19;20922;-75
2023/03/11 05:00:40;;;;;;;1.90;0.70;;;5.30;99.90;;;;;;7388651;19;20127;-76
2023/03/11 05:03:08;;;;;;;0.80;0.50;;;5.30;99.90;;;;;;7389808;19;20131;-75
2023/03/11 05:05:34;;;;;;;1.80;0.60;;;5.40;99.90;;;;;;7386791;19;20174;-78
2023/03/11 05:08:00;;;;;;;1.73;0.90;;;5.40;99.90;;;;;;7389321;19;20163;-75
2023/03/11 05:10:26;;;;;;;3.33;0.63;;;5.40;99.90;;;;;;7387745;19;20150;-76
2023/03/11 05:12:52;;;;;;;2.90;0.80;;;5.40;99.90;;;;;;7389135;19;20178;-75
2023/03/11 05:15:18;;;;;;;2.77;0.80;;;5.30;99.90;;;;;;7388024;19;20170;-74
2023/03/11 05:17:45;;;;;;;2.93;0.70;;;5.30;99.90;;;;;;7390034;19;20480;-75
2023/03/11 05:20:11;;;;;;;3.10;0.80;;;5.20;99.90;;;;;;7389777;19;20130;-74
2023/03/11 05:22:37;;;;;;;2.03;0.97;;;5.20;99.90;;;;;;7390099;19;20139;-75
2023/03/11 05:25:04;;;;;;;2.80;0.83;;;5.20;99.90;;;;;;7389003;19;20452;-75
2023/03/11 05:27:30;;;;;;;2.03;1.20;;;5.20;99.90;;;;;;7390980;19;20131;-78
2023/03/11 05:29:56;;;;;;;2.73;1.07;;;5.00;99.90;;;;;;7388473;19;20178;-76
2023/03/11 05:32:22;;;;;;;1.63;0.70;;;5.00;99.90;;;;;;7389465;19;20131;-75
2023/03/11 05:34:51;;;;;;;2.10;0.60;;;5.10;99.90;;;;;;7389049;19;20130;-77
2023/03/11 05:37:17;;;;;;;1.87;0.70;;;5.00;99.90;;;;;;7387581;19;20151;-75
2023/03/11 05:39:43;;;;;;;1.63;0.73;;;5.10;99.90;;;;;;7391608;19;20164;-74
2023/03/11 05:42:09;;;;;;;3.37;0.90;;;5.00;99.90;;;;;;7389358;19;20126;-75
2023/03/11 05:44:34;;;;;;;4.10;1.17;;;5.20;99.90;;;;;;7390633;19;20133;-76
2023/03/11 05:47:00;;;;;;;3.87;0.80;;;5.00;99.90;;;;;;7389397;19;20138;-75
2023/03/11 05:49:29;;;;;;;1.90;0.80;;;5.10;99.90;;;;;;7390145;19;20925;-75
2023/03/11 05:51:55;;;;;;;1.07;0.63;;;5.10;99.90;;;;;;7388516;19;20135;-77
2023/03/11 05:54:22;;;;;;;1.60;0.77;;;5.10;99.90;;;;;;7390392;19;20206;-76
2023/03/11 05:56:48;;;;;;;1.67;0.67;;;5.20;99.90;;;;;;7391541;19;20130;-76
2023/03/11 05:59:15;;;;;;;1.17;0.70;;;5.10;99.90;;;;;;7388408;19;20138;-75
2023/03/11 06:01:42;;;;;;;1.63;0.80;;;5.10;99.90;;;;;;7388995;19;20134;-75
2023/03/11 06:04:08;;;;;;;0.90;0.70;;;5.10;99.90;;;;;;7387207;19;20682;-75
2023/03/11 06:06:34;;;;;;;2.77;0.70;;;5.10;99.90;;;;;;7387710;19;20279;-76
2023/03/11 06:09:00;;;;;;;3.13;0.93;;;5.10;99.90;;;;;;7389928;19;20134;-76
2023/03/11 06:11:26;;;;;;;3.93;1.00;;;5.00;99.90;;;;;;7386661;19;20147;-76
2023/03/11 06:13:56;;;;;;;1.77;0.70;;;5.10;99.90;;;;;;7389306;19;20141;-75
2023/03/11 06:16:23;;;;;;;5.93;1.00;;;5.00;99.90;;;;;;7386469;19;20142;-74
2023/03/11 06:18:50;;;;;;;2.07;0.80;;;5.00;99.90;;;;;;7387703;19;20158;-75
2023/03/11 06:21:18;;;;;;;2.60;0.70;;;5.20;99.90;;;;;;7387006;19;20141;-76
2023/03/11 06:23:45;;;;;;;3.00;1.00;;;5.10;99.90;;;;;;7386735;19;20162;-76
2023/03/11 06:26:14;;;;;;;1.83;0.80;;;5.10;99.90;;;;;;7386172;19;20147;-76
2023/03/11 06:28:44;;;;;;;3.17;0.63;;;5.10;99.90;;;;;;7388466;19;20160;-76
2023/03/11 06:31:15;;;;;;;2.03;0.77;;;5.00;99.90;;;;;;7387880;19;20141;-75
2023/03/11 06:33:41;;;;;;;3.03;0.67;;;4.90;99.90;;;;;;7387044;19;20162;-74
2023/03/11 06:36:07;;;;;;;2.70;0.60;;;5.00;99.90;;;;;;7387002;19;20139;-75
2023/03/11 06:38:33;;;;;;;3.17;0.70;;;5.10;99.90;;;;;;7386301;19;20135;-75
2023/03/11 06:41:02;;;;;;;1.77;0.80;;;5.10;99.90;;;;;;7386186;19;20800;-76
2023/03/11 06:43:30;;;;;;;4.47;1.23;;;5.20;99.90;;;;;;7388177;19;20158;-76
2023/03/11 06:45:56;;;;;;;2.27;0.90;;;5.20;99.90;;;;;;7384970;19;20206;-75
2023/03/11 06:48:22;;;;;;;3.03;0.90;;;5.20;99.90;;;;;;7387773;19;20151;-75
2023/03/11 06:50:59;;;;;;;2.67;1.07;;;5.20;99.90;;;;;;7385624;19;20174;-75
2023/03/11 06:53:26;;;;;;;2.67;0.73;;;5.20;99.90;;;;;;7383051;19;20300;-76
2023/03/11 06:56:04;;;;;;;6.97;0.90;;;5.20;99.90;;;;;;7383227;19;20150;-76
2023/03/11 06:58:31;;;;;;;1.93;0.90;;;5.30;99.90;;;;;;7388528;19;20131;-76
2023/03/11 07:01:11;;;;;;;2.57;0.70;;;5.30;99.90;;;;;;7386383;19;20831;-74
2023/03/11 07:03:37;;;;;;;4.17;0.80;;;5.30;99.90;;;;;;7383827;19;20178;-75
2023/03/11 07:06:03;;;;;;;5.63;0.80;;;5.20;99.90;;;;;;7387163;19;20142;-76
2023/03/11 07:08:30;;;;;;;2.53;0.63;;;5.30;99.90;;;;;;7385350;19;20154;-76
2023/03/11 07:11:08;;;;;;;2.47;0.70;;;5.40;99.90;;;;;;7393326;19;20163;-75
2023/03/11 07:13:34;;;;;;;3.00;0.80;;;5.40;99.90;;;;;;7393181;19;20133;-75
2023/03/11 07:16:05;;;;;;;5.00;0.80;;;5.30;99.90;;;;;;7394295;19;20241;-76
2023/03/11 07:18:32;;;;;;;2.50;0.67;;;5.50;99.90;;;;;;7394681;19;20142;-77
2023/03/11 07:20:59;;;;;;;5.30;1.20;;;5.50;99.90;;;;;;7394806;19;20144;-76
2023/03/11 07:23:25;;;;;;;6.17;1.47;;;5.30;99.90;;;;;;7391587;19;20141;-76
2023/03/11 07:25:51;;;;;;;2.93;1.00;;;5.20;99.90;;;;;;7391473;19;20501;-76
2023/03/11 07:28:18;;;;;;;5.10;3.00;;;5.30;99.90;;;;;;7395721;19;20130;-77
2023/03/11 07:30:45;;;;;;;3.03;1.13;;;5.20;99.90;;;;;;7393661;19;20147;-75
2023/03/11 07:33:11;;;;;;;4.43;0.90;;;5.30;99.90;;;;;;7391065;19;20769;-77
2023/03/11 07:35:37;;;;;;;4.30;1.03;;;5.30;99.90;;;;;;7395575;19;20978;-76
2023/03/11 07:38:03;;;;;;;2.00;0.80;;;5.30;99.90;;;;;;7393937;19;20154;-76
2023/03/11 07:40:29;;;;;;;3.07;1.20;;;5.40;99.90;;;;;;7393679;19;20147;-77
2023/03/11 07:42:54;;;;;;;2.07;0.87;;;5.20;99.90;;;;;;7393151;19;20153;-76
2023/03/11 07:45:20;;;;;;;3.07;1.00;;;5.30;99.90;;;;;;7393332;19;20162;-75
2023/03/11 07:47:46;;;;;;;2.67;0.77;;;5.30;99.90;;;;;;7391761;19;20143;-77
2023/03/11 07:50:11;;;;;;;2.33;0.90;;;5.40;99.90;;;;;;7392117;19;20138;-76
2023/03/11 07:52:40;;;;;;;2.63;0.70;;;4.90;99.90;;;;;;7393677;19;20147;-77
2023/03/11 07:55:06;;;;;;;1.60;0.60;;;5.10;99.90;;;;;;7391835;19;20697;-77
2023/03/11 07:57:32;;;;;;;1.63;0.70;;;5.20;99.90;;;;;;7392698;19;20591;-76
2023/03/11 07:59:57;;;;;;;1.73;0.93;;;5.00;99.90;;;;;;7393894;19;20131;-78
2023/03/11 08:02:23;;;;;;;2.50;0.80;;;4.90;99.90;;;;;;7392228;19;20146;-77
2023/03/11 08:04:49;;;;;;;2.67;1.13;;;5.20;99.90;;;;;;7389833;19;20155;-79
2023/03/11 08:07:14;;;;;;;4.27;1.10;;;5.40;99.90;;;;;;7391891;19;20127;-75
2023/03/11 08:09:40;;;;;;;3.60;1.20;;;5.20;99.90;;;;;;7392304;19;20135;-76
2023/03/11 08:12:06;;;;;;;4.00;0.70;;;5.40;99.90;;;;;;7392169;19;20138;-76
2023/03/11 08:14:32;;;;;;;3.20;1.30;;;5.40;99.90;;;;;;7391395;19;20138;-76
2023/03/11 08:16:58;;;;;;;6.50;1.63;;;5.50;99.90;;;;;;7394194;19;20139;-76
2023/03/11 08:19:24;;;;;;;4.63;1.20;;;5.40;99.90;;;;;;7393239;19;20142;-78
2023/03/11 08:21:50;;;;;;;3.43;1.10;;;5.60;99.90;;;;;;7389198;19;20146;-82
2023/03/11 08:24:15;;;;;;;3.00;1.27;;;5.60;99.90;;;;;;7391637;19;20544;-76
2023/03/11 08:26:41;;;;;;;4.07;1.13;;;5.60;99.90;;;;;;7390055;19;20584;-75
2023/03/11 08:29:07;;;;;;;3.37;1.43;;;5.50;99.90;;;;;;7392850;19;20492;-76
2023/03/11 08:31:34;;;;;;;3.50;1.00;;;5.30;99.90;;;;;;7392358;19;20210;-76
2023/03/11 08:34:02;;;;;;;3.73;1.00;;;5.50;99.90;;;;;;7392357;19;20145;-78
2023/03/11 08:36:28;;;;;;;3.10;0.83;;;5.60;99.90;;;;;;7392699;19;20155;-76
2023/03/11 08:38:57;;;;;;;3.93;1.10;;;5.70;99.90;;;;;;7391675;19;20142;-77
2023/03/11 08:41:23;;;;;;;4.63;0.73;;;5.80;99.90;;;;;;7393746;19;20131;-76
2023/03/11 08:43:55;;;;;;;2.27;0.83;;;5.80;99.90;;;;;;7392074;19;20142;-78
2023/03/11 08:46:28;;;;;;;3.47;0.83;;;5.80;99.90;;;;;;7390917;19;20151;-76
2023/03/11 08:48:55;;;;;;;3.73;0.97;;;5.90;99.90;;;;;;7390830;19;20153;-76
2023/03/11 08:51:21;;;;;;;3.90;1.40;;;5.80;99.90;;;;;;7390872;19;20510;-79
2023/03/11 08:53:56;;;;;;;4.97;2.03;;;5.70;99.90;;;;;;7392180;19;20135;-75
2023/03/11 08:56:22;;;;;;;6.43;1.40;;;5.60;99.90;;;;;;7391589;19;20151;-78
2023/03/11 08:58:49;;;;;;;4.33;1.37;;;5.70;99.90;;;;;;7397403;19;20130;-79
2023/03/11 09:01:22;;;;;;;3.07;1.17;;;5.80;99.90;;;;;;7397797;19;20230;-78
2023/03/11 09:03:48;;;;;;;3.77;1.20;;;5.90;99.90;;;;;;7391410;19;20540;-77
2023/03/11 09:06:15;;;;;;;2.90;0.90;;;5.90;99.90;;;;;;7390160;19;20151;-77
2023/03/11 09:08:42;;;;;;;1.10;0.80;;;6.10;99.90;;;;;;7394417;19;20146;-80
2023/03/11 09:11:09;;;;;;;4.00;1.10;;;6.20;99.90;;;;;;7396082;19;20145;-79
2023/03/11 09:13:35;;;;;;;2.03;0.80;;;6.30;99.90;;;;;;7394001;19;20507;-79
2023/03/11 09:16:04;;;;;;;2.20;0.90;;;6.30;99.90;;;;;;7396984;19;20498;-80
2023/03/11 09:18:30;;;;;;;4.80;0.97;;;6.50;99.90;;;;;;7391407;19;20148;-77
2023/03/11 09:20:57;;;;;;;4.57;1.63;;;6.60;99.90;;;;;;7387861;19;21163;-76
2023/03/11 09:23:23;;;;;;;4.27;1.00;;;6.60;99.90;;;;;;7387670;19;20148;-76
2023/03/11 09:25:49;;;;;;;3.20;1.10;;;6.50;99.90;;;;;;7385294;19;20150;-75
2023/03/11 09:28:14;;;;;;;2.27;1.00;;;6.30;99.90;;;;;;7382869;19;20490;-76
2023/03/11 09:30:40;;;;;;;4.10;1.10;;;6.10;99.90;;;;;;7386686;19;20498;-76
2023/03/11 09:33:07;;;;;;;2.37;0.77;;;6.00;99.90;;;;;;7383606;19;20219;-77
2023/03/11 09:35:33;;;;;;;3.47;1.50;;;6.00;99.90;;;;;;7387634;19;20147;-76
2023/03/11 09:37:59;;;;;;;1.70;0.70;;;6.20;99.90;;;;;;7388123;19;21624;-77
2023/03/11 09:40:28;;;;;;;2.37;0.80;;;6.50;99.90;;;;;;7386598;19;20682;-75
2023/03/11 09:43:15;;;;;;;3.33;1.10;;;6.80;99.90;;;;;;7387194;19;20162;-76
2023/03/11 09:46:03;;;;;;;3.60;1.00;;;6.90;99.90;;;;;;7388605;19;20144;-77
2023/03/11 09:48:29;;;;;;;4.60;1.00;;;7.00;99.90;;;;;;7390522;19;20138;-75
2023/03/11 09:51:07;;;;;;;2.13;1.23;;;6.90;99.90;;;;;;7389385;19;20142;-77
2023/03/11 09:53:39;;;;;;;3.30;1.10;;;6.90;99.90;;;;;;7388579;19;20145;-76
2023/03/11 09:56:08;;;;;;;1.30;0.90;;;7.00;99.90;;;;;;7389303;19;20155;-77
2023/03/11 09:58:46;;;;;;;2.40;0.70;;;7.00;99.90;;;;;;7389299;19;20130;-76
2023/03/11 10:01:33;;;;;;;2.77;0.97;;;7.20;99.90;;;;;;7389946;19;20137;-77
2023/03/11 10:04:11;;;;;;;5.67;1.10;;;7.40;99.90;;;;;;7388247;19;20146;-77
2023/03/11 10:06:40;;;;;;;4.23;1.93;;;7.40;99.90;;;;;;7390477;19;20133;-76
2023/03/11 10:09:37;;;;;;;3.43;1.00;;;7.50;99.90;;;;;;7393304;19;20399;-77
2023/03/11 10:12:43;;;;;;;3.43;1.57;;;7.40;99.90;;;;;;7390957;19;20135;-76
2023/03/11 10:15:19;;;;;;;1.80;0.97;;;7.40;99.90;;;;;;7386596;19;20142;-76
2023/03/11 10:17:57;;;;;;;2.63;1.07;;;7.20;99.90;;;;;;7390582;19;20149;-77
2023/03/11 10:20:38;;;;;;;5.13;0.90;;;7.00;99.90;;;;;;7389548;19;20139;-76
2023/03/11 10:23:07;;;;;;;1.60;0.83;;;6.80;99.90;;;;;;7388660;19;20146;-77
2023/03/11 10:25:41;;;;;;;1.13;0.70;;;6.90;99.90;;;;;;7389946;19;20127;-75
2023/03/11 10:28:14;;;;;;;2.60;0.93;;;6.90;99.90;;;;;;7390148;19;20218;-76
2023/03/11 10:30:46;;;;;;;2.47;1.10;;;7.20;99.90;;;;;;7376206;19;20151;-76
2023/03/11 10:33:34;;;;;;;0.90;0.80;;;7.60;99.90;;;;;;7386029;19;20234;-75
2023/03/11 10:36:06;;;;;;;4.43;0.50;;;8.10;99.90;;;;;;7374698;19;20148;-73
2023/03/11 10:38:45;;;;;;;1.63;0.57;;;8.20;99.90;;;;;;7377126;19;20130;-74
2023/03/11 10:41:23;;;;;;;5.13;1.90;;;8.70;99.90;;;;;;7373252;19;20138;-74
2023/03/11 10:44:00;;;;;;;1.03;0.47;;;9.00;98.50;;;;;;7380205;19;20130;-74
2023/03/11 10:46:28;;;;;;;1.23;0.50;;;9.10;97.60;;;;;;7378130;19;20174;-74
2023/03/11 10:48:54;;;;;;;1.93;0.80;;;9.30;97.40;;;;;;7384992;19;20238;-74
2023/03/11 10:51:26;;;;;;;0.90;0.60;;;9.50;97.70;;;;;;7381711;19;20138;-75
2023/03/11 10:53:59;;;;;;;1.30;0.50;;;9.60;97.20;;;;;;7378607;19;20135;-75
2023/03/11 10:56:35;;;;;;;0.80;0.50;;;9.60;97.40;;;;;;7382444;19;20171;-74
2023/03/11 10:59:03;;;;;;;1.13;0.60;;;9.30;95.60;;;;;;7384751;19;20599;-75
2023/03/11 11:01:29;;;;;;;2.33;0.53;;;9.30;96.30;;;;;;7387785;19;20200;-74
2023/03/11 11:03:59;;;;;;;0.77;0.50;;;9.20;96.30;;;;;;7381162;19;20222;-76
2023/03/11 11:06:29;;;;;;;0.80;0.60;;;9.00;96.50;;;;;;7383653;19;20142;-76
2023/03/11 11:09:18;;;;;;;1.07;0.60;;;9.00;96.90;;;;;;7384783;19;20150;-76
2023/03/11 11:11:59;;;;;;;1.37;0.53;;;9.00;95.70;;;;;;7386395;19;20201;-75
2023/03/11 11:14:25;;;;;;;1.03;0.50;;;9.00;96.70;;;;;;7384710;19;20150;-77
2023/03/11 11:16:51;;;;;;;0.90;0.50;;;9.00;95.50;;;;;;7385451;19;20151;-76
2023/03/11 11:19:18;;;;;;;1.07;0.50;;;8.40;95.40;;;;;;7384105;19;20622;-75
2023/03/11 11:21:49;;;;;;;0.63;0.57;;;8.60;96.90;;;;;;7384267;19;20143;-75
2023/03/11 11:24:27;;;;;;;2.47;0.70;;;8.90;97.20;;;;;;7385230;19;20123;-76
2023/03/11 11:27:25;;;;;;;1.57;0.73;;;9.20;95.60;;;;;;7390129;19;20159;-75
2023/03/11 11:30:13;;;;;;;1.43;0.73;;;9.10;94.60;;;;;;7393348;19;20246;-75
2023/03/11 11:32:39;;;;;;;0.80;0.53;;;8.90;95.20;;;;;;7385988;19;20151;-76
2023/03/11 11:35:16;;;;;;;2.27;0.60;;;8.40;94.30;;;;;;7390231;19;20719;-76
2023/03/11 11:37:48;;;;;;;1.45;0.70;;;8.80;96.20;;;;;;7392583;19;20428;-75
2023/03/11 11:40:29;;;;;;;1.90;0.63;;;9.00;96.20;;;;;;7394192;19;20378;-74
2023/03/11 11:43:27;;;;;;;2.77;0.90;;;9.30;95.60;;;;;;7394967;19;20126;-78
2023/03/11 11:45:56;;;;;;;1.53;0.63;;;9.00;95.00;;;;;;7386666;19;20149;-74
2023/03/11 11:48:51;;;;;;;1.37;1.03;;;8.90;96.60;;;;;;7391700;19;20135;-74
2023/03/11 11:51:29;;;;;;;0.73;0.53;;;9.00;96.70;;;;;;7390736;19;20150;-72
2023/03/11 11:53:58;;;;;;;2.00;0.60;;;9.00;95.60;;;;;;7390823;19;20151;-72
2023/03/11 11:56:25;;;;;;;1.30;0.63;;;9.10;97.20;;;;;;7388712;19;20138;-74
2023/03/11 11:58:53;;;;;;;1.57;0.77;;;9.10;96.90;;;;;;7391303;19;20227;-73
2023/03/11 12:01:43;;;;;;;1.73;0.87;;;9.10;96.40;;;;;;7391045;19;20154;-73
2023/03/11 12:04:35;;;;;;;1.60;0.70;;;9.00;95.50;;;;;;7388498;19;20245;-75
2023/03/11 12:07:44;;;;;;;3.47;0.80;;;8.70;96.30;;;;;;7389624;19;20147;-75
2023/03/11 12:10:32;;;;;;;2.47;0.73;;;8.50;97.20;;;;;;7388880;19;20185;-75
2023/03/11 12:13:12;;;;;;;2.73;0.70;;;8.60;97.60;;;;;;7390573;19;20206;-75
2023/03/11 12:15:46;;;;;;;1.77;0.70;;;8.70;96.80;;;;;;7393274;19;20135;-76
2023/03/11 12:18:19;;;;;;;2.47;0.60;;;8.70;97.80;;;;;;7393316;19;20141;-75
2023/03/11 12:20:52;;;;;;;3.17;0.97;;;8.70;96.30;;;;;;7391532;19;20180;-75
2023/03/11 12:24:03;;;;;;;1.93;0.70;;;8.60;96.00;;;;;;7391453;19;20240;-75
2023/03/11 12:26:34;;;;;;;1.93;1.20;;;8.30;96.90;;;;;;7389357;19;20149;-75
2023/03/11 12:29:30;;;;;;;1.87;1.27;;;8.40;96.90;;;;;;7388349;19;21006;-75
2023/03/11 12:31:58;;;;;;;2.77;0.70;;;8.40;96.90;;;;;;7389172;19;20146;-74
2023/03/11 12:34:24;;;;;;;1.57;0.67;;;8.40;97.20;;;;;;7389946;19;20519;-74
2023/03/11 12:36:51;;;;;;;2.10;0.67;;;8.50;97.60;;;;;;7390612;19;20151;-74
2023/03/11 12:39:28;;;;;;;4.37;0.80;;;8.60;97.00;;;;;;7390275;19;20149;-72
2023/03/11 12:42:13;;;;;;;1.73;0.80;;;8.60;96.60;;;;;;7390148;19;20627;-74
2023/03/11 12:44:39;;;;;;;2.57;0.93;;;8.40;95.00;;;;;;7390170;19;20134;-72
2023/03/11 12:47:11;;;;;;;1.37;0.80;;;8.30;95.40;;;;;;7387588;19;20170;-73
2023/03/11 12:49:45;;;;;;;1.37;0.67;;;8.20;96.10;;;;;;7390010;19;20667;-72
2023/03/11 12:52:12;;;;;;;1.27;0.77;;;8.20;96.20;;;;;;7388989;19;20622;-73
2023/03/11 12:54:40;;;;;;;1.57;0.70;;;8.30;96.60;;;;;;7390000;19;20598;-73
2023/03/11 12:57:18;;;;;;;1.83;0.80;;;8.50;95.90;;;;;;7389051;19;20493;-74
2023/03/11 12:59:56;;;;;;;2.90;0.70;;;8.60;94.90;;;;;;7391808;19;20141;-73
2023/03/11 13:02:46;;;;;;;2.20;0.80;;;8.70;96.10;;;;;;7389006;19;20150;-73
2023/03/11 13:05:41;;;;;;;2.03;1.00;;;8.60;95.20;;;;;;7390003;19;20150;-73
2023/03/11 13:08:20;;;;;;;4.00;1.10;;;8.50;94.90;;;;;;7386451;19;20130;-75
2023/03/11 13:10:48;;;;;;;1.43;1.23;;;8.60;95.20;;;;;;7390325;19;20150;-73